sensor_id;sensor_type;location;lat;lon;timestamp;temperature;humidity
14378;DHT22;7272;53.668;9.578;2023-05-10T00:01:20;15.80;99.90
14378;DHT22;7272;53.668;9.578;2023-05-10T00:04:21;15.70;99.90
14378;DHT22;7272;53.668;9.578;2023-05-10T00:07:22;15.50;99.90
14378;DHT22;7272;53.668;9.578;2023-05-10T00:10:23;15.40;99.90
14378;DHT22;7272;53.668;9.578;2023-05-10T00:13:24;15.40;99.90
14378;DHT22;7272;53.668;9.578;2023-05-10T00:16:26;15.20;99.90
14378;DHT22;7272;53.668;9.578;2023-05-10T00:19:27;15.20;99.90
14378;DHT22;7272;53.668;9.578;2023-05-10T00:22:29;15.10;99.90
14378;DHT22;7272;53.668;9.578;2023-05-10T00:25:30;15.20;99.90
14378;DHT22;7272;53.668;9.578;2023-05-10T00:28:31;15.10;99.90
14378;DHT22;7272;53.668;9.578;2023-05-10T00:31:33;15.00;99.90
14378;DHT22;7272;53.668;9.578;2023-05-10T00:34:34;14.90;99.90
14378;DHT22;7272;53.668;9.578;2023-05-10T00:37:35;14.80;99.90
14378;DHT22;7272;53.668;9.578;2023-05-10T00:40:36;14.70;99.90
14378;DHT22;7272;53.668;9.578;2023-05-10T00:43:40;14.70;99.90
14378;DHT22;7272;53.668;9.578;2023-05-10T00:46:42;14.60;99.90
14378;DHT22;7272;53.668;9.578;2023-05-10T00:49:44;14.70;99.90
14378;DHT22;7272;53.668;9.578;2023-05-10T00:52:46;14.60;99.90
14378;DHT22;7272;53.668;9.578;2023-05-10T00:55:47;14.50;99.90
14378;DHT22;7272;53.668;9.578;2023-05-10T00:58:49;14.50;99.90
14378;DHT22;7272;53.668;9.578;2023-05-10T01:01:51;14.40;99.90
14378;DHT22;7272;53.668;9.578;2023-05-10T01:04:52;14.30;99.90
14378;DHT22;7272;53.668;9.578;2023-05-10T01:07:54;14.20;99.90
14378;DHT22;7272;53.668;9.578;2023-05-10T01:10:57;14.20;99.90
14378;DHT22;7272;53.668;9.578;2023-05-10T01:13:58;14.10;99.90
14378;DHT22;7272;53.668;9.578;2023-05-10T01:17:01;14.10;99.90
14378;DHT22;7272;53.668;9.578;2023-05-10T01:20:03;14.00;99.90
14378;DHT22;7272;53.668;9.578;2023-05-10T01:23:24;13.90;99.90
14378;DHT22;7272;53.668;9.578;2023-05-10T01:27:05;13.80;99.90
14378;DHT22;7272;53.668;9.578;2023-05-10T01:30:39;13.80;99.90
14378;DHT22;7272;53.668;9.578;2023-05-10T01:33:47;13.70;99.90
14378;DHT22;7272;53.668;9.578;2023-05-10T01:36:54;13.80;99.90
14378;DHT22;7272;53.668;9.578;2023-05-10T01:40:00;13.90;99.90
14378;DHT22;7272;53.668;9.578;2023-05-10T01:43:04;13.80;99.90
14378;DHT22;7272;53.668;9.578;2023-05-10T01:46:10;13.70;99.90
14378;DHT22;7272;53.668;9.578;2023-05-10T01:49:20;13.60;99.90
14378;DHT22;7272;53.668;9.578;2023-05-10T01:52:26;13.60;99.90
14378;DHT22;7272;53.668;9.578;2023-05-10T01:55:33;13.50;99.90
14378;DHT22;7272;53.668;9.578;2023-05-10T01:58:36;13.50;99.90
14378;DHT22;7272;53.668;9.578;2023-05-10T02:01:41;13.50;99.90
14378;DHT22;7272;53.668;9.578;2023-05-10T02:04:46;13.60;99.90
14378;DHT22;7272;53.668;9.578;2023-05-10T02:07:49;13.50;99.90
14378;DHT22;7272;53.668;9.578;2023-05-10T02:10:54;13.50;99.90
14378;DHT22;7272;53.668;9.578;2023-05-10T02:13:57;13.50;99.90
14378;DHT22;7272;53.668;9.578;2023-05-10T02:17:02;13.40;99.90
14378;DHT22;7272;53.668;9.578;2023-05-10T02:20:07;13.40;99.90
14378;DHT22;7272;53.668;9.578;2023-05-10T02:23:09;13.40;99.90
14378;DHT22;7272;53.668;9.578;2023-05-10T02:26:12;13.40;99.90
14378;DHT22;7272;53.668;9.578;2023-05-10T02:29:15;13.30;99.90
14378;DHT22;7272;53.668;9.578;2023-05-10T02:32:17;13.30;99.90
14378;DHT22;7272;53.668;9.578;2023-05-10T02:35:21;13.30;99.90
14378;DHT22;7272;53.668;9.578;2023-05-10T02:38:24;13.20;99.90
14378;DHT22;7272;53.668;9.578;2023-05-10T02:41:27;13.20;99.90
14378;DHT22;7272;53.668;9.578;2023-05-10T02:44:29;13.10;99.90
14378;DHT22;7272;53.668;9.578;2023-05-10T02:47:31;13.10;99.90
14378;DHT22;7272;53.668;9.578;2023-05-10T02:50:33;13.00;99.90
14378;DHT22;7272;53.668;9.578;2023-05-10T02:53:37;13.00;99.90
14378;DHT22;7272;53.668;9.578;2023-05-10T02:56:43;13.00;99.90
14378;DHT22;7272;53.668;9.578;2023-05-10T02:59:48;13.00;99.90
14378;DHT22;7272;53.668;9.578;2023-05-10T03:02:49;13.10;99.90
14378;DHT22;7272;53.668;9.578;2023-05-10T03:05:51;13.00;99.90
14378;DHT22;7272;53.668;9.578;2023-05-10T03:08:56;13.00;99.90
14378;DHT22;7272;53.668;9.578;2023-05-10T03:12:03;13.00;99.90
14378;DHT22;7272;53.668;9.578;2023-05-10T03:15:11;13.00;99.90
14378;DHT22;7272;53.668;9.578;2023-05-10T03:18:20;12.90;99.90
14378;DHT22;7272;53.668;9.578;2023-05-10T03:21:26;13.00;99.90
14378;DHT22;7272;53.668;9.578;2023-05-10T03:24:30;13.00;99.90
14378;DHT22;7272;53.668;9.578;2023-05-10T03:27:36;13.00;99.90
14378;DHT22;7272;53.668;9.578;2023-05-10T03:30:38;13.00;99.90
14378;DHT22;7272;53.668;9.578;2023-05-10T03:33:46;13.00;99.90
14378;DHT22;7272;53.668;9.578;2023-05-10T03:36:48;13.00;99.90
14378;DHT22;7272;53.668;9.578;2023-05-10T03:39:50;13.00;99.90
14378;DHT22;7272;53.668;9.578;2023-05-10T03:42:51;12.90;99.90
14378;DHT22;7272;53.668;9.578;2023-05-10T03:45:52;12.90;99.90
14378;DHT22;7272;53.668;9.578;2023-05-10T03:48:54;12.90;99.90
14378;DHT22;7272;53.668;9.578;2023-05-10T03:51:56;12.90;99.90
14378;DHT22;7272;53.668;9.578;2023-05-10T03:54:57;12.90;99.90
14378;DHT22;7272;53.668;9.578;2023-05-10T03:57:59;12.90;99.90
14378;DHT22;7272;53.668;9.578;2023-05-10T04:01:00;12.90;99.90
14378;DHT22;7272;53.668;9.578;2023-05-10T04:04:01;12.80;99.90
14378;DHT22;7272;53.668;9.578;2023-05-10T04:07:06;12.80;99.90
14378;DHT22;7272;53.668;9.578;2023-05-10T04:10:08;12.90;99.90
14378;DHT22;7272;53.668;9.578;2023-05-10T04:13:09;12.90;99.90
14378;DHT22;7272;53.668;9.578;2023-05-10T04:16:10;12.90;99.90
14378;DHT22;7272;53.668;9.578;2023-05-10T04:19:11;12.90;99.90
14378;DHT22;7272;53.668;9.578;2023-05-10T04:22:13;13.00;99.90
14378;DHT22;7272;53.668;9.578;2023-05-10T04:25:14;13.00;99.90
14378;DHT22;7272;53.668;9.578;2023-05-10T04:28:15;13.00;99.90
14378;DHT22;7272;53.668;9.578;2023-05-10T04:31:17;13.00;99.90
14378;DHT22;7272;53.668;9.578;2023-05-10T04:34:18;13.10;99.90
14378;DHT22;7272;53.668;9.578;2023-05-10T04:37:21;13.20;99.90
14378;DHT22;7272;53.668;9.578;2023-05-10T04:40:23;13.30;99.90
14378;DHT22;7272;53.668;9.578;2023-05-10T04:43:24;13.30;99.90
14378;DHT22;7272;53.668;9.578;2023-05-10T04:46:25;13.40;99.90
14378;DHT22;7272;53.668;9.578;2023-05-10T04:49:27;13.50;99.90
14378;DHT22;7272;53.668;9.578;2023-05-10T04:52:29;13.50;99.90
14378;DHT22;7272;53.668;9.578;2023-05-10T04:55:30;13.60;99.90
14378;DHT22;7272;53.668;9.578;2023-05-10T04:58:31;13.60;99.90
14378;DHT22;7272;53.668;9.578;2023-05-10T05:01:32;13.70;99.90
14378;DHT22;7272;53.668;9.578;2023-05-10T05:04:34;13.70;99.90
14378;DHT22;7272;53.668;9.578;2023-05-10T05:07:35;13.70;99.90
14378;DHT22;7272;53.668;9.578;2023-05-10T05:10:36;13.80;99.90
14378;DHT22;7272;53.668;9.578;2023-05-10T05:13:38;13.90;99.90
14378;DHT22;7272;53.668;9.578;2023-05-10T05:16:39;14.00;99.90
14378;DHT22;7272;53.668;9.578;2023-05-10T05:19:40;14.00;99.90
14378;DHT22;7272;53.668;9.578;2023-05-10T05:22:42;14.00;99.90
14378;DHT22;7272;53.668;9.578;2023-05-10T05:25:43;14.00;99.90
14378;DHT22;7272;53.668;9.578;2023-05-10T05:28:44;14.00;99.90
14378;DHT22;7272;53.668;9.578;2023-05-10T05:31:45;14.00;99.90
14378;DHT22;7272;53.668;9.578;2023-05-10T05:34:46;14.10;99.90
14378;DHT22;7272;53.668;9.578;2023-05-10T05:37:48;14.10;99.90
14378;DHT22;7272;53.668;9.578;2023-05-10T05:40:49;14.20;99.90
14378;DHT22;7272;53.668;9.578;2023-05-10T05:43:51;14.30;99.90
14378;DHT22;7272;53.668;9.578;2023-05-10T05:46:52;14.30;99.90
14378;DHT22;7272;53.668;9.578;2023-05-10T05:49:53;14.30;99.90
14378;DHT22;7272;53.668;9.578;2023-05-10T05:52:55;14.30;99.90
14378;DHT22;7272;53.668;9.578;2023-05-10T05:55:58;14.30;99.90
14378;DHT22;7272;53.668;9.578;2023-05-10T05:58:59;14.40;99.90
14378;DHT22;7272;53.668;9.578;2023-05-10T06:02:00;14.40;99.90
14378;DHT22;7272;53.668;9.578;2023-05-10T06:05:01;14.50;99.90
14378;DHT22;7272;53.668;9.578;2023-05-10T06:08:04;14.50;99.90
14378;DHT22;7272;53.668;9.578;2023-05-10T06:11:05;14.60;99.90
14378;DHT22;7272;53.668;9.578;2023-05-10T06:14:06;14.80;99.90
14378;DHT22;7272;53.668;9.578;2023-05-10T06:17:08;14.90;99.90
14378;DHT22;7272;53.668;9.578;2023-05-10T06:20:10;14.90;99.90
14378;DHT22;7272;53.668;9.578;2023-05-10T06:23:12;15.00;99.90
14378;DHT22;7272;53.668;9.578;2023-05-10T06:26:13;15.10;99.90
14378;DHT22;7272;53.668;9.578;2023-05-10T06:29:14;15.10;99.90
14378;DHT22;7272;53.668;9.578;2023-05-10T06:32:16;15.20;99.90
14378;DHT22;7272;53.668;9.578;2023-05-10T06:35:17;15.30;99.90
14378;DHT22;7272;53.668;9.578;2023-05-10T06:38:19;15.30;99.90
14378;DHT22;7272;53.668;9.578;2023-05-10T06:41:21;15.40;99.90
14378;DHT22;7272;53.668;9.578;2023-05-10T06:44:22;15.40;99.90
14378;DHT22;7272;53.668;9.578;2023-05-10T06:47:23;15.40;99.90
14378;DHT22;7272;53.668;9.578;2023-05-10T06:50:24;15.40;99.90
14378;DHT22;7272;53.668;9.578;2023-05-10T06:53:26;15.50;99.90
14378;DHT22;7272;53.668;9.578;2023-05-10T06:56:28;15.50;99.90
14378;DHT22;7272;53.668;9.578;2023-05-10T06:59:29;15.50;99.90
14378;DHT22;7272;53.668;9.578;2023-05-10T07:02:30;15.50;99.90
14378;DHT22;7272;53.668;9.578;2023-05-10T07:05:31;15.60;99.90
14378;DHT22;7272;53.668;9.578;2023-05-10T07:08:33;15.70;99.90
14378;DHT22;7272;53.668;9.578;2023-05-10T07:11:34;15.80;99.90
14378;DHT22;7272;53.668;9.578;2023-05-10T07:14:36;15.90;99.90
14378;DHT22;7272;53.668;9.578;2023-05-10T07:17:37;15.90;99.90
14378;DHT22;7272;53.668;9.578;2023-05-10T07:20:38;15.90;99.90
14378;DHT22;7272;53.668;9.578;2023-05-10T07:23:40;15.90;99.90
14378;DHT22;7272;53.668;9.578;2023-05-10T07:26:41;15.90;99.90
14378;DHT22;7272;53.668;9.578;2023-05-10T07:29:42;16.00;99.90
14378;DHT22;7272;53.668;9.578;2023-05-10T07:32:43;16.10;99.90
14378;DHT22;7272;53.668;9.578;2023-05-10T07:35:44;16.20;99.90
14378;DHT22;7272;53.668;9.578;2023-05-10T07:38:46;16.20;99.90
14378;DHT22;7272;53.668;9.578;2023-05-10T07:41:48;16.20;99.90
14378;DHT22;7272;53.668;9.578;2023-05-10T07:44:49;16.20;99.90
14378;DHT22;7272;53.668;9.578;2023-05-10T07:47:51;16.20;99.90
14378;DHT22;7272;53.668;9.578;2023-05-10T07:50:52;16.30;99.90
14378;DHT22;7272;53.668;9.578;2023-05-10T07:53:54;16.30;99.90
14378;DHT22;7272;53.668;9.578;2023-05-10T07:56:55;16.30;99.90
14378;DHT22;7272;53.668;9.578;2023-05-10T07:59:57;16.30;99.90
14378;DHT22;7272;53.668;9.578;2023-05-10T08:02:58;16.40;99.90
14378;DHT22;7272;53.668;9.578;2023-05-10T08:05:59;16.50;99.90
14378;DHT22;7272;53.668;9.578;2023-05-10T08:09:01;16.50;99.90
14378;DHT22;7272;53.668;9.578;2023-05-10T08:12:02;16.40;99.90
14378;DHT22;7272;53.668;9.578;2023-05-10T08:15:04;16.40;99.90
14378;DHT22;7272;53.668;9.578;2023-05-10T08:18:05;16.30;99.90
14378;DHT22;7272;53.668;9.578;2023-05-10T08:21:07;16.30;99.90
14378;DHT22;7272;53.668;9.578;2023-05-10T08:24:08;16.20;99.90
14378;DHT22;7272;53.668;9.578;2023-05-10T08:27:10;16.00;99.90
14378;DHT22;7272;53.668;9.578;2023-05-10T08:30:11;16.00;99.90
14378;DHT22;7272;53.668;9.578;2023-05-10T08:33:13;15.90;99.90
14378;DHT22;7272;53.668;9.578;2023-05-10T08:36:14;16.00;99.90
14378;DHT22;7272;53.668;9.578;2023-05-10T08:39:23;16.00;99.90
14378;DHT22;7272;53.668;9.578;2023-05-10T08:42:26;16.00;99.90
14378;DHT22;7272;53.668;9.578;2023-05-10T08:45:32;15.90;99.90
14378;DHT22;7272;53.668;9.578;2023-05-10T08:48:34;15.90;99.90
14378;DHT22;7272;53.668;9.578;2023-05-10T08:51:36;15.90;99.90
14378;DHT22;7272;53.668;9.578;2023-05-10T08:54:41;15.90;99.90
14378;DHT22;7272;53.668;9.578;2023-05-10T08:57:43;15.80;99.90
14378;DHT22;7272;53.668;9.578;2023-05-10T09:00:44;15.80;99.90
14378;DHT22;7272;53.668;9.578;2023-05-10T09:03:46;15.80;99.90
14378;DHT22;7272;53.668;9.578;2023-05-10T09:06:48;15.80;99.90
14378;DHT22;7272;53.668;9.578;2023-05-10T09:09:50;15.60;99.90
14378;DHT22;7272;53.668;9.578;2023-05-10T09:12:51;15.60;99.90
14378;DHT22;7272;53.668;9.578;2023-05-10T09:15:54;15.50;99.90
14378;DHT22;7272;53.668;9.578;2023-05-10T09:18:55;15.40;99.90
14378;DHT22;7272;53.668;9.578;2023-05-10T09:21:56;15.40;99.90
14378;DHT22;7272;53.668;9.578;2023-05-10T09:25:06;15.40;99.90
14378;DHT22;7272;53.668;9.578;2023-05-10T09:28:08;15.40;99.90
14378;DHT22;7272;53.668;9.578;2023-05-10T09:31:09;15.30;99.90
14378;DHT22;7272;53.668;9.578;2023-05-10T09:34:10;15.10;99.90
14378;DHT22;7272;53.668;9.578;2023-05-10T09:37:12;15.00;99.90
14378;DHT22;7272;53.668;9.578;2023-05-10T09:40:15;14.90;99.90
14378;DHT22;7272;53.668;9.578;2023-05-10T09:43:16;14.80;99.90
14378;DHT22;7272;53.668;9.578;2023-05-10T09:46:17;14.80;99.90
14378;DHT22;7272;53.668;9.578;2023-05-10T09:49:19;14.90;99.90
14378;DHT22;7272;53.668;9.578;2023-05-10T09:52:21;14.90;99.90
14378;DHT22;7272;53.668;9.578;2023-05-10T09:55:24;14.90;99.90
14378;DHT22;7272;53.668;9.578;2023-05-10T09:58:26;14.90;99.90
14378;DHT22;7272;53.668;9.578;2023-05-10T10:01:27;14.80;99.90
14378;DHT22;7272;53.668;9.578;2023-05-10T10:04:28;14.80;99.90
14378;DHT22;7272;53.668;9.578;2023-05-10T10:07:30;14.70;99.90
14378;DHT22;7272;53.668;9.578;2023-05-10T10:10:33;14.70;99.90
14378;DHT22;7272;53.668;9.578;2023-05-10T10:13:34;14.70;99.90
14378;DHT22;7272;53.668;9.578;2023-05-10T10:16:35;14.80;99.90
14378;DHT22;7272;53.668;9.578;2023-05-10T10:19:37;14.90;99.90
14378;DHT22;7272;53.668;9.578;2023-05-10T10:22:38;14.90;99.90
14378;DHT22;7272;53.668;9.578;2023-05-10T10:25:40;14.90;99.90
14378;DHT22;7272;53.668;9.578;2023-05-10T10:28:49;14.90;99.90
14378;DHT22;7272;53.668;9.578;2023-05-10T10:32:07;14.80;99.90
14378;DHT22;7272;53.668;9.578;2023-05-10T10:35:10;14.70;99.90
14378;DHT22;7272;53.668;9.578;2023-05-10T10:38:12;14.70;99.90
14378;DHT22;7272;53.668;9.578;2023-05-10T10:41:28;14.60;99.90
14378;DHT22;7272;53.668;9.578;2023-05-10T10:44:37;14.60;99.90
14378;DHT22;7272;53.668;9.578;2023-05-10T10:47:38;14.70;99.90
14378;DHT22;7272;53.668;9.578;2023-05-10T10:50:44;14.70;99.90
14378;DHT22;7272;53.668;9.578;2023-05-10T10:53:47;14.60;99.90
14378;DHT22;7272;53.668;9.578;2023-05-10T10:57:10;14.60;99.90
14378;DHT22;7272;53.668;9.578;2023-05-10T11:00:26;14.60;99.90
14378;DHT22;7272;53.668;9.578;2023-05-10T11:03:27;14.60;99.90
14378;DHT22;7272;53.668;9.578;2023-05-10T11:06:29;14.60;99.90
14378;DHT22;7272;53.668;9.578;2023-05-10T11:09:39;14.60;99.90
14378;DHT22;7272;53.668;9.578;2023-05-10T11:12:52;14.60;99.90
14378;DHT22;7272;53.668;9.578;2023-05-10T11:15:53;14.60;99.90
14378;DHT22;7272;53.668;9.578;2023-05-10T11:18:58;14.50;99.90
14378;DHT22;7272;53.668;9.578;2023-05-10T11:22:13;14.50;99.90
14378;DHT22;7272;53.668;9.578;2023-05-10T11:25:14;14.50;99.90
14378;DHT22;7272;53.668;9.578;2023-05-10T11:28:18;14.60;99.90
14378;DHT22;7272;53.668;9.578;2023-05-10T11:31:20;14.70;99.90
14378;DHT22;7272;53.668;9.578;2023-05-10T11:34:25;14.80;99.90
14378;DHT22;7272;53.668;9.578;2023-05-10T11:37:28;14.90;99.90
14378;DHT22;7272;53.668;9.578;2023-05-10T11:40:33;15.10;99.90
14378;DHT22;7272;53.668;9.578;2023-05-10T11:43:35;15.20;99.90
14378;DHT22;7272;53.668;9.578;2023-05-10T11:46:38;15.20;99.90
14378;DHT22;7272;53.668;9.578;2023-05-10T11:49:43;15.10;99.90
14378;DHT22;7272;53.668;9.578;2023-05-10T11:52:44;15.10;99.90
14378;DHT22;7272;53.668;9.578;2023-05-10T11:55:45;15.10;99.90
14378;DHT22;7272;53.668;9.578;2023-05-10T11:58:53;15.10;99.90
14378;DHT22;7272;53.668;9.578;2023-05-10T12:01:55;15.10;99.90
14378;DHT22;7272;53.668;9.578;2023-05-10T12:04:56;15.20;99.90
14378;DHT22;7272;53.668;9.578;2023-05-10T12:08:11;15.30;99.90
14378;DHT22;7272;53.668;9.578;2023-05-10T12:11:13;15.40;99.90
14378;DHT22;7272;53.668;9.578;2023-05-10T12:14:16;15.50;99.90
14378;DHT22;7272;53.668;9.578;2023-05-10T12:17:17;15.60;99.90
14378;DHT22;7272;53.668;9.578;2023-05-10T12:20:20;15.70;99.90
14378;DHT22;7272;53.668;9.578;2023-05-10T12:23:21;15.80;99.90
14378;DHT22;7272;53.668;9.578;2023-05-10T12:26:23;15.70;99.90
14378;DHT22;7272;53.668;9.578;2023-05-10T12:29:26;15.70;99.90
14378;DHT22;7272;53.668;9.578;2023-05-10T12:32:40;15.90;99.90
14378;DHT22;7272;53.668;9.578;2023-05-10T12:35:46;16.00;99.90
14378;DHT22;7272;53.668;9.578;2023-05-10T12:38:47;16.10;99.90
14378;DHT22;7272;53.668;9.578;2023-05-10T12:41:48;16.30;99.90
14378;DHT22;7272;53.668;9.578;2023-05-10T12:44:55;16.40;99.90
14378;DHT22;7272;53.668;9.578;2023-05-10T12:47:56;16.50;99.90
14378;DHT22;7272;53.668;9.578;2023-05-10T12:50:57;16.50;99.90
14378;DHT22;7272;53.668;9.578;2023-05-10T12:53:58;16.50;99.90
14378;DHT22;7272;53.668;9.578;2023-05-10T12:56:59;16.50;99.90
14378;DHT22;7272;53.668;9.578;2023-05-10T13:00:01;16.50;99.90
14378;DHT22;7272;53.668;9.578;2023-05-10T13:03:03;16.60;99.90
14378;DHT22;7272;53.668;9.578;2023-05-10T13:06:06;16.60;99.90
14378;DHT22;7272;53.668;9.578;2023-05-10T13:09:07;16.70;99.90
14378;DHT22;7272;53.668;9.578;2023-05-10T13:12:08;16.70;99.90
14378;DHT22;7272;53.668;9.578;2023-05-10T13:15:10;16.70;99.90
14378;DHT22;7272;53.668;9.578;2023-05-10T13:18:14;16.70;99.90
14378;DHT22;7272;53.668;9.578;2023-05-10T13:21:15;16.70;99.90
14378;DHT22;7272;53.668;9.578;2023-05-10T13:24:17;16.80;99.90
14378;DHT22;7272;53.668;9.578;2023-05-10T13:27:18;16.80;99.90
14378;DHT22;7272;53.668;9.578;2023-05-10T13:30:20;16.80;99.90
14378;DHT22;7272;53.668;9.578;2023-05-10T13:33:21;16.90;99.90
14378;DHT22;7272;53.668;9.578;2023-05-10T13:36:22;16.90;99.90
14378;DHT22;7272;53.668;9.578;2023-05-10T13:39:23;16.90;99.90
14378;DHT22;7272;53.668;9.578;2023-05-10T13:42:24;16.80;99.90
14378;DHT22;7272;53.668;9.578;2023-05-10T13:45:27;16.90;99.90
14378;DHT22;7272;53.668;9.578;2023-05-10T13:48:28;17.00;99.90
14378;DHT22;7272;53.668;9.578;2023-05-10T13:51:29;17.10;99.90
14378;DHT22;7272;53.668;9.578;2023-05-10T13:54:32;17.10;99.90
14378;DHT22;7272;53.668;9.578;2023-05-10T13:57:33;17.20;99.90
14378;DHT22;7272;53.668;9.578;2023-05-10T14:00:36;17.30;99.90
14378;DHT22;7272;53.668;9.578;2023-05-10T14:03:38;17.40;99.90
14378;DHT22;7272;53.668;9.578;2023-05-10T14:06:39;17.40;99.90
14378;DHT22;7272;53.668;9.578;2023-05-10T14:09:40;17.60;99.90
14378;DHT22;7272;53.668;9.578;2023-05-10T14:12:41;17.60;99.90
14378;DHT22;7272;53.668;9.578;2023-05-10T14:15:43;17.60;99.90
14378;DHT22;7272;53.668;9.578;2023-05-10T14:18:44;17.70;99.90
14378;DHT22;7272;53.668;9.578;2023-05-10T14:21:46;17.80;99.90
14378;DHT22;7272;53.668;9.578;2023-05-10T14:24:47;17.80;99.90
14378;DHT22;7272;53.668;9.578;2023-05-10T14:27:48;17.80;99.90
14378;DHT22;7272;53.668;9.578;2023-05-10T14:30:50;17.80;99.90
14378;DHT22;7272;53.668;9.578;2023-05-10T14:33:52;17.90;99.90
14378;DHT22;7272;53.668;9.578;2023-05-10T14:36:53;18.10;99.90
14378;DHT22;7272;53.668;9.578;2023-05-10T14:39:55;18.10;99.90
14378;DHT22;7272;53.668;9.578;2023-05-10T14:42:57;18.10;99.90
14378;DHT22;7272;53.668;9.578;2023-05-10T14:45:59;18.00;99.90
14378;DHT22;7272;53.668;9.578;2023-05-10T14:49:00;17.90;99.90
14378;DHT22;7272;53.668;9.578;2023-05-10T14:52:01;17.90;99.90
14378;DHT22;7272;53.668;9.578;2023-05-10T14:55:04;17.90;99.90
14378;DHT22;7272;53.668;9.578;2023-05-10T14:58:05;18.00;99.90
14378;DHT22;7272;53.668;9.578;2023-05-10T15:01:07;18.10;99.90
14378;DHT22;7272;53.668;9.578;2023-05-10T15:04:08;18.20;99.90
14378;DHT22;7272;53.668;9.578;2023-05-10T15:07:10;18.20;99.90
14378;DHT22;7272;53.668;9.578;2023-05-10T15:10:15;18.30;99.90
14378;DHT22;7272;53.668;9.578;2023-05-10T15:13:16;18.30;99.90
14378;DHT22;7272;53.668;9.578;2023-05-10T15:16:18;18.20;99.90
14378;DHT22;7272;53.668;9.578;2023-05-10T15:19:19;18.20;99.90
14378;DHT22;7272;53.668;9.578;2023-05-10T15:22:21;18.10;99.90
14378;DHT22;7272;53.668;9.578;2023-05-10T15:25:23;18.10;99.90
14378;DHT22;7272;53.668;9.578;2023-05-10T15:28:24;18.20;99.90
14378;DHT22;7272;53.668;9.578;2023-05-10T15:31:26;18.10;99.90
14378;DHT22;7272;53.668;9.578;2023-05-10T15:34:28;18.10;99.90
14378;DHT22;7272;53.668;9.578;2023-05-10T15:37:29;18.00;99.90
14378;DHT22;7272;53.668;9.578;2023-05-10T15:40:31;18.00;99.90
14378;DHT22;7272;53.668;9.578;2023-05-10T15:43:32;18.00;99.90
14378;DHT22;7272;53.668;9.578;2023-05-10T15:46:34;18.00;99.90
14378;DHT22;7272;53.668;9.578;2023-05-10T15:49:35;17.80;99.90
14378;DHT22;7272;53.668;9.578;2023-05-10T15:52:36;17.70;99.90
14378;DHT22;7272;53.668;9.578;2023-05-10T15:55:37;17.70;99.90
14378;DHT22;7272;53.668;9.578;2023-05-10T15:58:40;17.70;99.90
14378;DHT22;7272;53.668;9.578;2023-05-10T16:01:42;17.80;99.90
14378;DHT22;7272;53.668;9.578;2023-05-10T16:04:44;17.90;99.90
14378;DHT22;7272;53.668;9.578;2023-05-10T16:07:45;18.00;99.90
14378;DHT22;7272;53.668;9.578;2023-05-10T16:10:47;18.10;99.90
14378;DHT22;7272;53.668;9.578;2023-05-10T16:13:48;18.10;99.90
14378;DHT22;7272;53.668;9.578;2023-05-10T16:16:50;18.00;99.90
14378;DHT22;7272;53.668;9.578;2023-05-10T16:19:51;18.00;99.90
14378;DHT22;7272;53.668;9.578;2023-05-10T16:22:53;17.90;99.90
14378;DHT22;7272;53.668;9.578;2023-05-10T16:25:54;17.90;99.90
14378;DHT22;7272;53.668;9.578;2023-05-10T16:28:55;17.90;99.90
14378;DHT22;7272;53.668;9.578;2023-05-10T16:31:57;17.80;99.90
14378;DHT22;7272;53.668;9.578;2023-05-10T16:34:59;17.40;99.90
14378;DHT22;7272;53.668;9.578;2023-05-10T16:38:00;16.70;99.90
14378;DHT22;7272;53.668;9.578;2023-05-10T16:41:01;16.10;99.90
14378;DHT22;7272;53.668;9.578;2023-05-10T16:44:03;15.70;99.90
14378;DHT22;7272;53.668;9.578;2023-05-10T16:47:04;15.50;99.90
14378;DHT22;7272;53.668;9.578;2023-05-10T16:50:07;15.40;99.90
14378;DHT22;7272;53.668;9.578;2023-05-10T16:53:09;15.40;99.90
14378;DHT22;7272;53.668;9.578;2023-05-10T16:56:11;15.30;99.90
14378;DHT22;7272;53.668;9.578;2023-05-10T16:59:12;15.40;99.90
14378;DHT22;7272;53.668;9.578;2023-05-10T17:02:14;15.30;99.90
14378;DHT22;7272;53.668;9.578;2023-05-10T17:05:15;15.20;99.90
14378;DHT22;7272;53.668;9.578;2023-05-10T17:08:16;15.10;99.90
14378;DHT22;7272;53.668;9.578;2023-05-10T17:11:17;15.00;99.90
14378;DHT22;7272;53.668;9.578;2023-05-10T17:14:19;14.90;99.90
14378;DHT22;7272;53.668;9.578;2023-05-10T17:17:21;14.90;99.90
14378;DHT22;7272;53.668;9.578;2023-05-10T17:20:23;15.00;99.90
14378;DHT22;7272;53.668;9.578;2023-05-10T17:23:24;14.90;99.90
14378;DHT22;7272;53.668;9.578;2023-05-10T17:26:25;14.80;99.90
14378;DHT22;7272;53.668;9.578;2023-05-10T17:29:27;14.70;99.90
14378;DHT22;7272;53.668;9.578;2023-05-10T17:32:29;14.70;99.90
14378;DHT22;7272;53.668;9.578;2023-05-10T17:35:30;14.70;99.90
14378;DHT22;7272;53.668;9.578;2023-05-10T17:38:31;14.60;99.90
14378;DHT22;7272;53.668;9.578;2023-05-10T17:41:33;14.60;99.90
14378;DHT22;7272;53.668;9.578;2023-05-10T17:44:34;14.70;99.90
14378;DHT22;7272;53.668;9.578;2023-05-10T17:47:36;14.60;99.90
14378;DHT22;7272;53.668;9.578;2023-05-10T17:50:40;14.50;99.90
14378;DHT22;7272;53.668;9.578;2023-05-10T17:53:41;14.40;99.90
14378;DHT22;7272;53.668;9.578;2023-05-10T17:56:43;14.40;99.90
14378;DHT22;7272;53.668;9.578;2023-05-10T17:59:44;14.40;99.90
14378;DHT22;7272;53.668;9.578;2023-05-10T18:02:46;14.50;99.90
14378;DHT22;7272;53.668;9.578;2023-05-10T18:05:47;14.60;99.90
14378;DHT22;7272;53.668;9.578;2023-05-10T18:08:48;14.60;99.90
14378;DHT22;7272;53.668;9.578;2023-05-10T18:11:49;14.70;99.90
14378;DHT22;7272;53.668;9.578;2023-05-10T18:14:51;14.60;99.90
14378;DHT22;7272;53.668;9.578;2023-05-10T18:17:52;14.50;99.90
14378;DHT22;7272;53.668;9.578;2023-05-10T18:20:55;14.40;99.90
14378;DHT22;7272;53.668;9.578;2023-05-10T18:23:57;14.40;99.90
14378;DHT22;7272;53.668;9.578;2023-05-10T18:26:58;14.40;99.90
14378;DHT22;7272;53.668;9.578;2023-05-10T18:29:59;14.30;99.90
14378;DHT22;7272;53.668;9.578;2023-05-10T18:33:01;14.30;99.90
14378;DHT22;7272;53.668;9.578;2023-05-10T18:36:03;14.30;99.90
14378;DHT22;7272;53.668;9.578;2023-05-10T18:39:04;14.20;99.90
14378;DHT22;7272;53.668;9.578;2023-05-10T18:42:06;14.10;99.90
14378;DHT22;7272;53.668;9.578;2023-05-10T18:45:08;14.10;99.90
14378;DHT22;7272;53.668;9.578;2023-05-10T18:48:10;14.10;99.90
14378;DHT22;7272;53.668;9.578;2023-05-10T18:51:11;14.10;99.90
14378;DHT22;7272;53.668;9.578;2023-05-10T18:54:13;14.10;99.90
14378;DHT22;7272;53.668;9.578;2023-05-10T18:57:14;14.00;99.90
14378;DHT22;7272;53.668;9.578;2023-05-10T19:00:16;14.00;99.90
14378;DHT22;7272;53.668;9.578;2023-05-10T19:03:20;13.90;99.90
14378;DHT22;7272;53.668;9.578;2023-05-10T19:06:22;13.80;99.90
14378;DHT22;7272;53.668;9.578;2023-05-10T19:09:25;13.80;99.90
14378;DHT22;7272;53.668;9.578;2023-05-10T19:12:26;13.70;99.90
14378;DHT22;7272;53.668;9.578;2023-05-10T19:15:28;13.60;99.90
14378;DHT22;7272;53.668;9.578;2023-05-10T19:18:29;13.50;99.90
14378;DHT22;7272;53.668;9.578;2023-05-10T19:21:31;13.50;99.90
14378;DHT22;7272;53.668;9.578;2023-05-10T19:24:32;13.50;99.90
14378;DHT22;7272;53.668;9.578;2023-05-10T19:27:34;13.50;99.90
14378;DHT22;7272;53.668;9.578;2023-05-10T19:30:35;13.50;99.90